Time;durP1;ratioP1;P1;durP2;ratioP2;P2;SDS_P1;SDS_P2;PMS_P1;PMS_P2;Temp;Humidity;BMP_temperature;BMP_pressure;BME280_temperature;BME280_humidity;BME280_pressure;Samples;Min_cycle;Max_cycle;Signal;HPM_P1;HPM_P2
2021/12/15 00:02:09;;;;;;;24.15;8.23;;;9.60;99.90;;;9.59;95.07;102394.34;5225355;28;20132;-72
2021/12/15 00:04:43;;;;;;;22.15;8.15;;;9.60;99.90;;;9.60;95.30;102390.94;5225694;28;20048;-73
2021/12/15 00:07:15;;;;;;;24.73;8.80;;;9.60;99.90;;;9.58;95.21;102395.13;5225432;28;20049;-72
2021/12/15 00:09:47;;;;;;;24.88;8.30;;;9.50;99.90;;;9.58;95.42;102395.13;5225418;28;20053;-72
2021/12/15 00:12:20;;;;;;;23.42;7.82;;;9.60;99.90;;;9.59;95.48;102396.94;5225484;28;20079;-73
2021/12/15 00:14:53;;;;;;;19.80;8.27;;;9.60;99.90;;;9.57;95.74;102399.44;5224843;28;20089;-72
2021/12/15 00:17:27;;;;;;;22.23;7.97;;;9.60;99.90;;;9.59;95.52;102402.16;5225389;28;20045;-72
2021/12/15 00:19:59;;;;;;;21.67;8.50;;;9.60;99.90;;;9.56;95.69;102396.72;5225543;28;20051;-73
2021/12/15 00:22:31;;;;;;;19.92;7.75;;;9.50;99.90;;;9.56;95.82;102401.94;5225314;28;20493;-72
2021/12/15 00:25:04;;;;;;;22.50;7.78;;;9.60;99.90;;;9.58;95.80;102392.50;5224865;28;20045;-72
2021/12/15 00:27:37;;;;;;;21.55;8.77;;;9.50;99.90;;;9.60;95.78;102393.53;5225205;28;20416;-72
2021/12/15 00:30:11;;;;;;;19.70;7.57;;;9.60;99.90;;;9.60;95.69;102390.94;5225245;28;20049;-72
2021/12/15 00:32:44;;;;;;;21.38;7.85;;;9.50;99.90;;;9.61;95.79;102390.13;5225130;28;20045;-73
2021/12/15 00:35:16;;;;;;;21.55;7.63;;;9.60;99.90;;;9.56;96.10;102397.63;5224781;28;20059;-72
2021/12/15 00:37:50;;;;;;;22.67;8.02;;;9.60;99.90;;;9.54;96.20;102395.75;5225058;28;20055;-73
2021/12/15 00:40:25;;;;;;;22.92;7.85;;;9.60;99.90;;;9.52;96.44;102404.38;5224946;28;20494;-73
2021/12/15 00:42:58;;;;;;;19.92;7.10;;;9.50;99.90;;;9.50;96.48;102403.34;5224941;28;20129;-73
2021/12/15 00:45:30;;;;;;;24.83;7.68;;;9.60;99.90;;;9.54;96.49;102408.75;5224447;28;20501;-73
2021/12/15 00:48:05;;;;;;;24.05;7.35;;;9.60;99.90;;;9.54;96.38;102400.94;5224400;28;20508;-72
2021/12/15 00:50:37;;;;;;;20.55;7.65;;;9.60;99.90;;;9.57;96.33;102403.75;5211708;28;20077;-73
2021/12/15 00:53:10;;;;;;;18.40;7.63;;;9.60;99.90;;;9.57;96.38;102403.75;5208121;28;20398;-71
2021/12/15 00:55:43;;;;;;;23.17;8.65;;;9.60;99.90;;;9.57;96.09;102408.94;5207596;28;20402;-72
2021/12/15 00:58:15;;;;;;;22.73;8.30;;;9.60;99.90;;;9.59;96.31;102402.16;5208312;28;20410;-72
2021/12/15 01:00:51;;;;;;;18.95;7.45;;;9.60;99.90;;;9.60;96.55;102403.94;5207783;28;20049;-72
2021/12/15 01:03:25;;;;;;;23.88;7.88;;;9.60;99.90;;;9.59;96.35;102402.16;5208074;28;20052;-73
2021/12/15 01:06:06;;;;;;;24.42;7.80;;;9.60;99.90;;;9.57;96.67;102403.75;5207786;28;20140;-73
2021/12/15 01:08:45;;;;;;;20.55;7.13;;;9.60;99.90;;;9.55;96.75;102401.03;5208084;28;20049;-73
2021/12/15 01:11:27;;;;;;;19.83;7.00;;;9.60;99.90;;;9.55;96.50;102402.75;5208115;28;20050;-72
2021/12/15 01:19:52;;;;;;;20.83;7.43;;;9.60;99.90;;;9.58;96.32;102400.31;5208041;28;20061;-73
2021/12/15 01:22:30;;;;;;;18.98;6.85;;;9.60;99.90;;;9.59;96.63;102403.06;5207734;28;20045;-73
2021/12/15 01:25:08;;;;;;;22.13;7.32;;;9.60;99.90;;;9.62;96.47;102402.34;5207175;28;20136;-72
2021/12/15 01:27:40;;;;;;;19.73;7.00;;;9.60;99.90;;;9.59;96.45;102407.38;5207699;28;20140;-72
2021/12/15 01:30:16;;;;;;;20.50;6.72;;;9.60;99.90;;;9.52;96.74;102406.97;5207572;28;20133;-72
2021/12/15 01:32:49;;;;;;;20.48;6.47;;;9.50;99.90;;;9.56;96.63;102412.34;5207546;28;20041;-73
2021/12/15 01:35:23;;;;;;;19.65;7.22;;;9.60;99.90;;;9.58;96.48;102410.75;5206898;28;20144;-72
2021/12/15 01:37:57;;;;;;;19.05;6.65;;;9.50;99.90;;;9.57;96.68;102414.16;5207586;28;20141;-72
2021/12/15 01:40:34;;;;;;;17.95;6.90;;;9.60;99.90;;;9.60;96.74;102411.75;5207427;28;20049;-72
2021/12/15 01:43:15;;;;;;;15.38;6.15;;;9.60;99.90;;;9.61;96.55;102408.34;5207243;28;20128;-73
2021/12/15 01:48:54;;;;;;;17.80;6.55;;;9.60;99.90;;;9.63;96.30;102409.34;5207236;28;20417;-72
2021/12/15 01:51:28;;;;;;;20.48;6.30;;;9.60;99.90;;;9.60;96.18;102399.66;5207345;28;20502;-72
2021/12/15 01:54:01;;;;;;;18.17;6.20;;;9.60;99.90;;;9.66;96.21;102406.94;5206591;28;20144;-74
2021/12/15 01:56:33;;;;;;;23.25;6.50;;;9.60;99.90;;;9.67;96.10;102408.75;5207433;28;20080;-73
2021/12/15 01:59:06;;;;;;;19.98;7.25;;;9.60;99.90;;;9.68;96.03;102408.84;5207007;28;20057;-72
2021/12/15 02:01:41;;;;;;;22.20;7.60;;;9.60;99.90;;;9.70;96.15;102414.13;5205733;28;20131;-73
2021/12/15 02:04:16;;;;;;;27.75;7.95;;;9.70;99.90;;;9.70;96.09;102416.75;5206288;28;20053;-72
2021/12/15 02:06:50;;;;;;;20.42;6.45;;;9.70;99.90;;;9.74;96.06;102418.75;5206827;28;20045;-72
2021/12/15 02:09:44;;;;;;;17.70;5.78;;;9.70;99.90;;;9.71;95.88;102413.31;5206735;28;20084;-73
2021/12/15 02:12:19;;;;;;;18.67;7.03;;;9.70;99.90;;;9.72;95.88;102413.44;5206821;28;20470;-72
2021/12/15 02:14:52;;;;;;;14.35;5.53;;;9.60;99.90;;;9.73;96.01;102414.34;5205970;28;20049;-73
2021/12/15 02:17:24;;;;;;;13.73;5.18;;;9.60;99.90;;;9.72;95.73;102410.84;5206459;28;20203;-72
2021/12/15 02:19:56;;;;;;;15.63;5.57;;;9.70;99.90;;;9.74;95.97;102413.53;5206360;28;20045;-72
2021/12/15 02:22:31;;;;;;;16.35;5.70;;;9.70;99.90;;;9.71;96.04;102409.03;5206545;28;20068;-72
2021/12/15 02:25:09;;;;;;;13.70;5.60;;;9.70;99.90;;;9.71;95.78;102413.31;5205821;28;20100;-72
2021/12/15 02:27:42;;;;;;;14.88;5.53;;;9.70;99.90;;;9.70;95.88;102407.22;5206415;28;20057;-74
2021/12/15 02:30:30;;;;;;;14.02;5.65;;;9.70;99.90;;;9.70;95.69;102403.72;5206089;28;20076;-72
2021/12/15 02:33:13;;;;;;;12.85;4.55;;;9.70;99.90;;;9.69;95.70;102405.44;5206505;28;20045;-72
2021/12/15 02:38:42;;;;;;;16.25;6.00;;;9.60;99.90;;;9.71;95.38;102400.31;5206195;28;20069;-72
2021/12/15 02:41:20;;;;;;;14.07;5.50;;;9.60;99.90;;;9.71;95.48;102392.50;5206204;28;20057;-72
2021/12/15 02:43:56;;;;;;;13.48;5.00;;;9.70;99.90;;;9.71;95.34;102397.72;5205597;28;20083;-73
2021/12/15 02:46:31;;;;;;;13.00;4.80;;;9.70;99.90;;;9.71;95.59;102384.69;5205967;28;20049;-72
2021/12/15 02:49:06;;;;;;;12.07;4.55;;;9.70;99.90;;;9.72;95.46;102396.94;5206631;28;20053;-72
2021/12/15 02:51:41;;;;;;;14.77;5.03;;;9.70;99.90;;;9.72;95.38;102394.31;5205932;28;20045;-73
2021/12/15 02:54:16;;;;;;;16.58;5.53;;;9.70;99.90;;;9.74;95.25;102397.91;5205071;28;20056;-73
2021/12/15 02:56:51;;;;;;;16.85;5.55;;;9.70;99.90;;;9.74;95.12;102391.00;5205595;28;20136;-75
2021/12/15 02:59:29;;;;;;;;;;;9.70;99.90;;;9.74;95.21;102393.59;5206673;28;20103;-72
2021/12/15 03:02:10;;;;;;;15.05;5.20;;;9.70;99.90;;;9.76;95.15;102391.09;5205711;28;19921;-73
2021/12/15 03:04:46;;;;;;;16.85;5.22;;;9.70;99.90;;;9.76;95.13;102391.09;5205058;28;20053;-72
2021/12/15 03:07:29;;;;;;;12.13;4.30;;;9.70;99.90;;;9.75;95.22;102384.09;5205375;28;20107;-73
2021/12/15 03:15:41;;;;;;;10.57;4.28;;;9.70;99.90;;;9.75;95.13;102390.19;5204851;28;20061;-72
2021/12/15 03:18:17;;;;;;;12.48;4.22;;;9.70;99.90;;;9.76;95.21;102388.47;5205288;28;20479;-73
2021/12/15 03:20:59;;;;;;;12.55;4.28;;;9.70;99.90;;;9.76;95.17;102386.78;5205628;28;20057;-73
2021/12/15 03:23:39;;;;;;;13.25;6.05;;;9.70;99.90;;;9.76;95.07;102392.00;5205159;28;20475;-71
2021/12/15 03:26:19;;;;;;;11.50;4.60;;;9.70;99.90;;;9.74;95.09;102382.28;5204898;28;20061;-73
2021/12/15 03:34:45;;;;;;;10.05;4.88;;;9.70;99.90;;;9.71;95.09;102382.09;5204509;28;20413;-72
2021/12/15 03:37:23;;;;;;;11.98;3.70;;;9.70;99.90;;;9.70;95.02;102394.19;5205036;28;20146;-73
2021/12/15 03:40:06;;;;;;;10.13;3.72;;;9.70;99.90;;;9.71;94.92;102398.59;5205249;28;20049;-73
2021/12/15 03:42:44;;;;;;;10.70;4.28;;;9.70;99.90;;;9.71;94.96;102395.09;5204841;28;20077;-72
2021/12/15 03:45:21;;;;;;;8.05;3.53;;;9.70;99.90;;;9.72;94.96;102400.44;5204782;28;20041;-73
2021/12/15 03:47:55;;;;;;;9.68;4.22;;;9.70;99.90;;;9.75;94.98;102411.03;5205105;28;20049;-74
2021/12/15 03:50:32;;;;;;;10.25;4.20;;;9.60;99.90;;;9.76;94.94;102411.94;5205396;28;20387;-72
2021/12/15 03:53:06;;;;;;;8.30;3.33;;;9.70;99.90;;;9.76;94.82;102407.63;5205278;28;20111;-72
2021/12/15 03:55:39;;;;;;;8.20;3.50;;;9.70;99.90;;;9.77;94.90;102413.72;5204374;28;20060;-72
2021/12/15 03:58:16;;;;;;;10.20;4.10;;;9.70;99.90;;;9.76;94.94;102406.72;5205065;28;20747;-72
2021/12/15 04:00:53;;;;;;;8.32;3.50;;;9.70;99.90;;;9.75;95.09;102415.34;5205045;28;20240;-73
2021/12/15 04:03:28;;;;;;;10.93;3.97;;;9.70;99.90;;;9.75;95.04;102410.13;5204877;28;20509;-73
2021/12/15 04:06:04;;;;;;;7.78;3.10;;;9.70;99.90;;;9.75;95.18;102416.25;5204313;28;20206;-72
2021/12/15 04:08:37;;;;;;;10.73;3.80;;;9.70;99.90;;;9.77;95.24;102411.13;5204734;28;20054;-75
2021/12/15 04:11:13;;;;;;;9.02;3.00;;;9.70;99.90;;;9.76;95.04;102415.44;5204875;28;20053;-72
2021/12/15 04:13:47;;;;;;;7.57;3.58;;;9.70;99.90;;;9.75;95.24;102415.34;5204436;28;20056;-72
2021/12/15 04:16:42;;;;;;;45.60;14.27;;;9.60;99.90;;;9.74;95.24;102418.75;5204624;28;20410;-72
2021/12/15 04:19:17;;;;;;;43.00;12.35;;;9.70;99.90;;;9.74;95.06;102424.84;5204493;28;20054;-72
2021/12/15 04:21:50;;;;;;;42.47;12.63;;;9.60;99.90;;;9.75;94.96;102416.25;5204750;28;20132;-72
2021/12/15 04:24:25;;;;;;;35.03;10.93;;;9.70;99.90;;;9.77;95.00;102421.53;5205553;28;20133;-74
2021/12/15 04:27:00;;;;;;;19.10;6.40;;;9.60;99.90;;;9.76;94.90;102424.94;5208988;28;20047;-73
2021/12/15 04:29:33;;;;;;;15.68;5.68;;;9.70;99.90;;;9.77;95.05;102426.75;5208961;28;20414;-73
2021/12/15 04:32:12;;;;;;;8.02;3.45;;;9.70;99.90;;;9.78;95.06;102425.97;5208699;28;20364;-73
2021/12/15 04:34:44;;;;;;;8.82;3.38;;;9.70;99.90;;;9.79;94.90;102439.09;5208060;28;20491;-72
2021/12/15 04:37:16;;;;;;;4.55;2.03;;;9.70;99.90;;;9.81;94.53;102436.56;5208452;28;20056;-72
2021/12/15 04:39:48;;;;;;;4.93;1.92;;;9.70;99.90;;;9.80;94.50;102426.97;5208886;28;20045;-73
2021/12/15 04:42:24;;;;;;;7.75;2.42;;;9.70;99.90;;;9.81;94.41;102433.97;5208508;28;20054;-73
2021/12/15 04:44:57;;;;;;;4.32;2.08;;;9.70;99.90;;;9.83;94.37;102434.06;5208205;28;20510;-72
2021/12/15 04:47:29;;;;;;;6.10;2.65;;;9.70;99.90;;;9.84;94.05;102430.63;5208303;28;20049;-72
2021/12/15 04:50:01;;;;;;;7.68;2.28;;;9.70;99.90;;;9.84;94.15;102430.63;5208702;28;20053;-72
2021/12/15 04:52:34;;;;;;;4.53;1.90;;;9.70;99.90;;;9.85;93.93;102438.56;5208271;28;20052;-73
2021/12/15 04:55:09;;;;;;;3.45;2.13;;;9.80;99.90;;;9.86;93.79;102435.16;5207757;28;20434;-73
2021/12/15 04:57:42;;;;;;;4.10;1.70;;;9.80;99.90;;;9.86;93.70;102435.16;5208370;28;20140;-73
2021/12/15 05:00:21;;;;;;;3.20;1.63;;;9.80;99.90;;;9.85;93.67;102427.25;5208068;28;20504;-72
2021/12/15 05:02:54;;;;;;;3.15;1.48;;;9.80;99.90;;;9.86;93.70;102435.16;5208019;28;20048;-72
2021/12/15 05:05:28;;;;;;;2.65;1.45;;;9.80;99.90;;;9.85;93.50;102433.38;5207624;28;20051;-72
2021/12/15 05:08:01;;;;;;;2.95;1.40;;;9.70;99.90;;;9.86;93.34;102439.47;5208159;28;20136;-72
2021/12/15 05:10:34;;;;;;;3.45;1.35;;;9.80;99.90;;;9.86;93.43;102440.38;5208248;28;20054;-72
2021/12/15 05:13:07;;;;;;;3.05;1.50;;;9.80;99.90;;;9.86;93.13;102442.09;5207789;28;20084;-72
2021/12/15 05:15:43;;;;;;;4.45;1.80;;;9.80;99.90;;;9.86;93.08;102440.38;5207477;28;20045;-72
2021/12/15 05:18:16;;;;;;;4.20;1.63;;;9.80;99.90;;;9.87;92.86;102444.78;5207798;28;20135;-72
2021/12/15 05:20:51;;;;;;;5.35;1.73;;;9.80;99.90;;;9.87;92.97;102439.56;5207672;28;20060;-72
2021/12/15 05:23:28;;;;;;;4.22;1.85;;;9.80;99.90;;;9.87;92.95;102449.97;5207794;28;20608;-73
2021/12/15 05:26:01;;;;;;;4.53;1.50;;;9.80;99.90;;;9.87;93.04;102443.88;5207593;28;20059;-72
2021/12/15 05:28:34;;;;;;;3.30;1.40;;;9.80;99.90;;;9.88;92.98;102451.78;5207943;28;20553;-71
2021/12/15 05:31:08;;;;;;;2.75;1.70;;;9.80;99.90;;;9.90;93.18;102452.78;5208242;28;20405;-73
2021/12/15 05:33:40;;;;;;;2.60;1.70;;;9.80;99.90;;;9.89;93.15;102452.69;5207453;28;20045;-73
2021/12/15 05:36:12;;;;;;;3.65;1.33;;;9.80;99.90;;;9.90;93.23;102451.88;5206162;28;20055;-72
2021/12/15 05:38:44;;;;;;;3.90;1.55;;;9.80;99.90;;;9.90;93.11;102454.47;5207539;28;20049;-73
2021/12/15 05:41:16;;;;;;;2.20;1.60;;;9.80;99.90;;;9.88;93.00;102457.00;5207847;28;20383;-73
2021/12/15 05:43:48;;;;;;;2.95;1.58;;;9.80;99.90;;;9.89;93.24;102465.72;5206907;28;20383;-73
2021/12/15 05:46:22;;;;;;;2.78;1.27;;;9.80;99.90;;;9.89;93.16;102458.78;5207484;28;20055;-73
2021/12/15 05:48:54;;;;;;;1.67;1.20;;;9.80;99.90;;;9.90;93.25;102468.41;5207781;28;20046;-73
2021/12/15 05:51:26;;;;;;;3.38;1.83;;;9.80;99.90;;;9.89;93.21;102464.00;5207351;28;20409;-73
2021/12/15 05:53:58;;;;;;;2.42;1.33;;;9.80;99.90;;;9.88;93.56;102472.63;5233084;22;20463;-82
2021/12/15 05:56:30;;;;;;;3.35;1.50;;;9.80;99.90;;;9.88;93.40;102477.84;5225564;28;20052;-82
2021/12/15 05:59:04;;;;;;;2.65;1.10;;;9.80;99.90;;;9.89;93.57;102482.22;5233675;28;20144;-83
2021/12/15 06:01:38;;;;;;;2.47;1.20;;;9.80;99.90;;;9.90;93.70;102478.81;5232954;28;20116;-82
2021/12/15 06:04:13;;;;;;;3.88;1.33;;;9.80;99.90;;;9.90;93.64;102481.44;5233024;28;20045;-82
2021/12/15 06:06:45;;;;;;;3.28;1.45;;;9.80;99.90;;;9.89;93.58;102482.22;5233184;28;20107;-82
2021/12/15 06:09:17;;;;;;;3.17;1.88;;;9.80;99.90;;;9.91;93.18;102480.66;5233237;28;20400;-82
2021/12/15 06:11:52;;;;;;;3.17;1.58;;;9.80;99.90;;;9.88;93.36;102482.16;5232818;28;20468;-82
2021/12/15 06:14:27;;;;;;;6.18;1.83;;;9.80;99.90;;;9.79;93.47;102478.16;5232591;28;20461;-83
2021/12/15 06:17:06;;;;;;;3.45;1.60;;;9.80;99.90;;;9.87;93.53;102491.66;5233294;28;20048;-83
2021/12/15 06:19:39;;;;;;;4.78;1.63;;;9.80;99.90;;;9.86;93.36;102482.06;5233138;28;20128;-83
2021/12/15 06:22:11;;;;;;;3.55;2.00;;;9.80;99.90;;;9.87;93.20;102490.75;5233174;28;20388;-82
2021/12/15 06:24:43;;;;;;;4.60;1.58;;;9.80;99.90;;;9.88;93.14;102503.88;5232069;28;20045;-81
2021/12/15 06:27:19;;;;;;;6.25;1.67;;;9.80;99.90;;;9.86;93.07;102502.88;5233086;28;20049;-82
2021/12/15 06:29:53;;;;;;;4.10;1.98;;;9.80;99.90;;;9.84;93.09;102498.38;5233654;28;20104;-83
2021/12/15 06:32:27;;;;;;;3.47;1.50;;;9.70;99.90;;;9.71;93.67;102500.16;5234706;28;20045;-83
2021/12/15 06:34:59;;;;;;;4.00;1.60;;;9.70;99.90;;;9.75;94.06;102511.69;5233266;28;20044;-82
2021/12/15 06:37:31;;;;;;;3.97;2.17;;;9.70;99.90;;;9.71;94.67;102509.69;5233772;28;20426;-82
2021/12/15 06:40:08;;;;;;;4.22;1.80;;;9.70;99.90;;;9.66;95.45;102492.88;5233663;28;20132;-83
2021/12/15 06:42:42;;;;;;;6.13;1.85;;;9.70;99.90;;;9.66;95.71;102493.78;5233936;28;20041;-82
2021/12/15 06:45:20;;;;;;;4.88;2.10;;;9.70;99.90;;;9.62;95.98;102496.06;5234031;28;20103;-84
2021/12/15 06:59:12;;;;;;;7.85;2.45;;;9.60;99.90;;;9.65;97.32;102512.81;5237706;28;20064;-82
2021/12/15 07:01:46;;;;;;;8.75;3.05;;;9.60;99.90;;;9.65;97.38;102506.69;5240078;28;20059;-83
2021/12/15 07:04:21;;;;;;;13.75;2.78;;;9.60;99.90;;;9.66;97.44;102511.13;5229115;28;20041;-81
2021/12/15 07:06:53;;;;;;;9.00;2.65;;;9.60;99.90;;;9.62;97.43;102504.78;5230278;28;20049;-82
2021/12/15 07:09:25;;;;;;;10.18;2.17;;;9.60;99.90;;;9.61;97.81;102507.28;5230262;28;20041;-82
2021/12/15 07:11:58;;;;;;;7.57;2.90;;;9.60;99.90;;;9.62;97.70;102516.91;5218664;28;20567;-80
2021/12/15 07:14:30;;;;;;;6.38;3.03;;;9.60;99.90;;;9.62;97.76;102516.91;5209765;28;20063;-81
2021/12/15 07:17:08;;;;;;;9.02;3.50;;;9.60;99.90;;;9.62;97.86;102511.69;5209779;28;20057;-81
2021/12/15 07:20:04;;;;;;;6.20;2.35;;;9.60;99.90;;;9.59;98.02;102508.91;5209961;28;20055;-83
2021/12/15 07:22:43;;;;;;;7.63;3.33;;;9.60;99.90;;;9.61;97.99;102515.09;5210929;28;20466;-84
2021/12/15 07:25:16;;;;;;;5.03;2.35;;;9.60;99.90;;;9.62;98.02;102517.81;5212542;28;20056;-84
2021/12/15 07:27:49;;;;;;;4.57;2.50;;;9.60;99.90;;;9.59;98.57;102527.13;5212106;28;20049;-84
2021/12/15 07:30:23;;;;;;;4.28;1.80;;;9.60;99.90;;;9.69;99.90;102526.91;5211710;28;20051;-84
2021/12/15 07:32:56;;;;;;;7.03;2.50;;;9.70;99.90;;;9.94;100.00;102526.81;5211371;28;20485;-83
2021/12/15 07:35:30;;;;;;;6.65;3.00;;;9.90;99.90;;;9.88;99.39;102532.53;5210736;28;20068;-84
2021/12/15 07:38:02;;;;;;;8.93;4.35;;;10.00;99.90;;;9.78;98.97;102530.16;5212773;28;20049;-86
2021/12/15 07:40:35;;;;;;;9.05;4.10;;;10.00;99.90;;;9.66;98.91;102529.34;5213508;28;20049;-87
2021/12/15 07:43:13;;;;;;;7.45;3.13;;;9.90;99.90;;;9.64;98.82;102525.72;5212573;28;20050;-89
2021/12/15 07:45:50;;;;;;;7.20;3.22;;;9.80;99.90;;;9.65;98.68;102540.53;5213684;28;20056;-88
2021/12/15 07:48:25;;;;;;;14.15;5.40;;;9.80;99.90;;;9.61;98.71;102542.03;5212783;28;20049;-89
2021/12/15 07:51:00;;;;;;;10.48;4.00;;;9.70;99.90;;;9.61;98.83;102542.03;5212066;28;20049;-89
2021/12/15 07:53:33;;;;;;;11.77;4.93;;;9.70;99.90;;;9.56;98.75;102548.66;5211549;28;20053;-89
2021/12/15 07:56:05;;;;;;;8.75;3.85;;;9.60;99.90;;;9.56;99.06;102551.25;5213055;28;20059;-87
2021/12/15 07:58:37;;;;;;;12.45;5.28;;;9.60;99.90;;;9.46;99.11;102541.94;5212800;28;20077;-88
2021/12/15 08:01:10;;;;;;;8.90;3.35;;;9.60;99.90;;;9.57;99.23;102557.34;5214276;28;20049;-86
2021/12/15 08:03:43;;;;;;;7.55;3.10;;;9.50;99.90;;;9.59;99.31;102558.38;5213447;28;20045;-85
2021/12/15 08:06:16;;;;;;;9.50;4.07;;;9.60;99.90;;;9.58;99.30;102567.88;5214650;28;20057;-84
2021/12/15 08:08:48;;;;;;;10.32;4.07;;;9.60;99.90;;;9.59;99.22;102559.28;5218103;28;20060;-86
2021/12/15 08:11:21;;;;;;;10.18;4.45;;;9.60;99.90;;;9.62;99.30;102558.56;5212435;28;20105;-86
2021/12/15 08:13:53;;;;;;;8.00;3.60;;;9.60;99.90;;;9.63;99.38;102555.16;5211829;28;20053;-86
2021/12/15 08:16:25;;;;;;;9.25;4.95;;;9.60;99.90;;;9.60;99.33;102554.97;5212914;28;20480;-86
2021/12/15 08:18:58;;;;;;;10.45;5.22;;;9.60;99.90;;;9.62;99.26;102553.38;5212933;28;20080;-86
2021/12/15 08:21:31;;;;;;;8.60;4.07;;;9.60;99.90;;;9.56;99.55;102545.13;5214032;28;20567;-85
2021/12/15 08:24:04;;;;;;;14.15;5.90;;;9.60;99.90;;;9.60;99.56;102565.38;5215194;28;20042;-86
2021/12/15 08:26:37;;;;;;;6.60;2.20;;;9.60;99.90;;;10.28;100.00;102561.19;5212479;28;20541;-81
2021/12/15 08:29:13;;;;;;;12.30;5.28;;;10.10;99.90;;;10.60;100.00;102556.31;5215907;28;20056;-86
2021/12/15 08:31:45;;;;;;;9.43;3.33;;;10.60;99.90;;;10.55;100.00;102562.03;5216416;28;20049;-86
2021/12/15 08:34:18;;;;;;;7.82;3.88;;;10.70;99.90;;;10.43;98.97;102562.19;5213814;28;20080;-86
2021/12/15 08:36:54;;;;;;;7.25;3.28;;;10.60;99.90;;;10.33;98.26;102558.09;5214680;28;20049;-84
2021/12/15 08:39:26;;;;;;;8.55;3.38;;;10.50;99.90;;;10.28;97.93;102566.41;5215915;28;20060;-87
2021/12/15 08:41:58;;;;;;;8.23;3.40;;;10.40;99.90;;;10.24;97.58;102570.53;5215047;28;20045;-86
2021/12/15 08:44:31;;;;;;;5.40;2.53;;;10.30;99.90;;;10.18;97.27;102574.44;5214306;28;20076;-85
2021/12/15 08:47:05;;;;;;;8.10;3.47;;;10.20;99.90;;;10.13;97.17;102575.81;5211705;28;20052;-85
2021/12/15 08:53:38;;;;;;;7.93;3.45;;;10.10;99.90;;;9.97;96.74;102569.59;5211629;28;20109;-86
2021/12/15 08:56:13;;;;;;;8.45;3.28;;;10.00;99.90;;;9.88;96.75;102565.50;5216587;28;20049;-87
2021/12/15 08:58:46;;;;;;;7.10;2.97;;;10.00;99.90;;;9.88;96.91;102574.22;5217942;28;20080;-86
2021/12/15 09:01:25;;;;;;;5.50;2.78;;;9.90;99.90;;;9.87;97.34;102582.84;5217845;28;20061;-88
2021/12/15 09:04:02;;;;;;;6.68;2.90;;;9.80;99.90;;;9.88;97.50;102584.63;5217889;28;20046;-86
2021/12/15 09:06:38;;;;;;;7.90;2.75;;;9.90;99.90;;;9.89;97.79;102576.00;5217361;28;20065;-89
2021/12/15 09:09:20;;;;;;;7.18;2.78;;;9.80;99.90;;;9.86;97.93;102572.31;5216166;28;20053;-84
2021/12/15 09:11:54;;;;;;;7.88;3.75;;;9.80;99.90;;;9.90;97.92;102572.59;5213844;28;20053;-87
2021/12/15 09:14:30;;;;;;;8.90;3.50;;;9.90;99.90;;;9.89;98.26;102570.81;5220927;28;20049;-85
2021/12/15 09:17:08;;;;;;;9.32;3.78;;;9.80;99.90;;;9.90;98.55;102577.81;5221212;28;20085;-87
2021/12/15 09:19:40;;;;;;;9.63;3.85;;;9.80;99.90;;;9.89;98.74;102573.41;5220944;28;20041;-85
2021/12/15 09:22:12;;;;;;;9.50;4.30;;;9.80;99.90;;;9.89;98.95;102576.00;5216211;28;20045;-86
2021/12/15 09:24:45;;;;;;;7.95;4.10;;;9.80;99.90;;;9.93;99.15;102579.75;5215705;28;20045;-86
2021/12/15 09:27:19;;;;;;;9.85;3.75;;;9.90;99.90;;;9.90;99.30;102575.22;5216237;28;20140;-86
2021/12/15 09:29:52;;;;;;;7.65;3.63;;;9.90;99.90;;;9.93;99.16;102572.81;5215889;28;20053;-87
2021/12/15 09:32:24;;;;;;;7.65;3.65;;;9.90;99.90;;;9.96;99.23;102588.63;5215780;28;20057;-89
2021/12/15 09:34:56;;;;;;;9.65;4.25;;;9.90;99.90;;;9.99;99.23;102588.84;5216259;28;20088;-88
2021/12/15 09:37:29;;;;;;;6.50;3.15;;;9.90;99.90;;;10.00;99.27;102587.16;5216404;28;20057;-86
2021/12/15 09:40:05;;;;;;;7.72;3.72;;;9.90;99.90;;;9.94;99.35;102574.63;5216711;28;20045;-87
2021/12/15 09:42:39;;;;;;;8.13;3.20;;;9.90;99.90;;;9.98;99.39;102587.06;5215927;28;20076;-88
2021/12/15 09:45:25;;;;;;;9.30;3.67;;;9.90;99.90;;;10.03;99.61;102587.34;5215203;28;20072;-86
2021/12/15 09:56:19;;;;;;;9.73;4.07;;;9.90;99.90;;;10.04;99.51;102597.88;5216263;28;20055;-86
2021/12/15 10:02:40;;;;;;;8.77;3.67;;;10.00;99.90;;;10.15;100.00;102601.16;5215880;28;20056;-85
2021/12/15 10:05:28;;;;;;;8.63;3.20;;;10.00;99.90;;;10.20;100.00;102594.56;5216006;28;20056;-85
2021/12/15 10:11:14;;;;;;;6.80;2.83;;;10.20;99.90;;;10.37;100.00;102599.97;5215803;28;20041;-86
2021/12/15 10:19:40;;;;;;;8.10;3.78;;;10.30;99.90;;;10.39;100.00;102578.44;5212818;28;20430;-85
2021/12/15 10:22:23;;;;;;;7.57;3.78;;;10.30;99.90;;;10.55;100.00;102594.22;5211952;28;20049;-86
2021/12/15 10:24:58;;;;;;;8.50;3.42;;;10.40;99.90;;;10.66;99.90;102597.53;5211973;28;20049;-85
2021/12/15 10:27:41;;;;;;;11.40;4.60;;;10.40;99.90;;;10.71;99.40;102582.19;5219073;28;20144;-86
2021/12/15 10:30:25;;;;;;;12.07;4.65;;;10.50;99.90;;;10.81;98.89;102587.16;5219219;28;20112;-86
2021/12/15 10:33:02;;;;;;;13.00;5.03;;;10.60;99.90;;;10.85;98.70;102584.81;5226392;28;20041;-89
2021/12/15 10:35:39;;;;;;;10.25;4.30;;;10.60;99.90;;;10.79;98.33;102584.44;5232426;28;20050;-90
2021/12/15 10:38:20;;;;;;;11.85;3.90;;;10.60;99.90;;;10.83;98.07;102580.34;5232704;28;20090;-87
2021/12/15 10:41:03;;;;;;;10.60;4.15;;;10.60;99.90;;;10.78;97.73;102584.34;5220529;28;20080;-85
2021/12/15 10:43:41;;;;;;;11.13;3.90;;;10.60;99.90;;;10.82;97.28;102583.72;5214805;28;20136;-86
2021/12/15 10:46:19;;;;;;;9.57;4.10;;;10.60;99.90;;;10.78;97.20;102581.75;5213996;28;20404;-86
2021/12/15 10:48:55;;;;;;;8.10;3.05;;;10.60;99.90;;;10.81;97.30;102576.72;5214443;28;20049;-86
2021/12/15 10:51:36;;;;;;;8.63;3.90;;;10.60;99.90;;;10.88;97.27;102573.66;5214489;28;20050;-84
2021/12/15 10:54:13;;;;;;;10.98;4.20;;;10.70;99.90;;;10.90;96.91;102572.06;5213826;28;20426;-88
2021/12/15 10:56:54;;;;;;;7.03;3.00;;;10.70;99.90;;;10.93;96.78;102577.47;5216281;28;20128;-86
2021/12/15 10:59:31;;;;;;;6.50;3.17;;;10.70;99.90;;;10.98;96.98;102576.06;5216250;28;20041;-88
2021/12/15 11:02:07;;;;;;;7.57;2.78;;;10.80;99.90;;;11.05;97.10;102578.22;5215462;28;20054;-86
2021/12/15 11:04:44;;;;;;;7.28;2.70;;;10.80;99.90;;;11.05;96.46;102580.84;5215609;28;20500;-86
2021/12/15 11:07:29;;;;;;;6.07;2.78;;;10.80;99.90;;;11.00;96.05;102576.13;5215683;28;20128;-88
2021/12/15 11:10:06;;;;;;;8.98;2.70;;;10.80;99.90;;;11.01;95.60;102575.31;5215632;28;20053;-88
2021/12/15 11:12:40;;;;;;;5.25;2.45;;;10.80;99.90;;;11.06;95.27;102574.81;5215122;28;20054;-88
2021/12/15 11:15:15;;;;;;;5.78;1.98;;;10.80;99.90;;;11.05;94.78;102582.53;5214383;28;20047;-86
2021/12/15 11:17:51;;;;;;;3.35;1.70;;;10.80;99.90;;;11.06;94.75;102585.25;5214278;28;20132;-88
2021/12/15 11:20:28;;;;;;;4.28;2.17;;;10.90;99.90;;;11.28;97.81;102577.03;5214588;28;20076;-86
2021/12/15 11:23:02;;;;;;;3.42;1.67;;;11.00;99.90;;;11.93;96.22;102584.31;5214642;28;20049;-87
2021/12/15 11:25:42;;;;;;;4.25;1.88;;;11.70;99.90;;;12.41;92.17;102587.94;5212458;28;20049;-85
2021/12/15 11:28:21;;;;;;;4.10;1.70;;;12.30;99.90;;;12.33;89.07;102578.78;5212143;28;20158;-87
2021/12/15 11:30:59;;;;;;;4.50;2.08;;;12.40;99.90;;;12.09;88.12;102579.19;5214128;28;20053;-86
2021/12/15 11:33:38;;;;;;;5.85;2.10;;;12.20;99.90;;;11.89;88.57;102582.38;5214586;28;20049;-85
2021/12/15 11:36:14;;;;;;;5.07;2.05;;;12.00;99.90;;;11.74;88.53;102576.22;5214653;28;20057;-88
2021/12/15 11:38:51;;;;;;;4.32;2.08;;;11.80;99.90;;;11.60;88.79;102571.06;5210674;28;20574;-87
2021/12/15 11:41:29;;;;;;;3.90;1.85;;;11.70;99.90;;;11.52;89.48;102564.50;5211316;28;20057;-88
2021/12/15 11:44:06;;;;;;;5.72;2.28;;;11.60;99.90;;;11.47;89.96;102562.41;5211836;28;20069;-87
2021/12/15 11:46:41;;;;;;;5.50;2.33;;;11.50;99.90;;;11.37;90.37;102555.78;5211360;28;20064;-88
2021/12/15 11:49:18;;;;;;;7.57;2.80;;;11.40;99.90;;;11.34;90.17;102556.47;5212627;28;20045;-87
2021/12/15 11:51:55;;;;;;;6.47;2.58;;;11.30;99.90;;;11.30;90.68;102558.84;5212760;28;20060;-87
2021/12/15 11:54:31;;;;;;;5.38;2.60;;;11.20;99.90;;;11.25;91.10;102560.25;5333642;22;20028;-86